sensor_id;sensor_type;location;lat;lon;timestamp;P1;durP1;ratioP1;P2;durP2;ratioP2
38226;SDS011;24026;49.446;8.576;2023-03-31T00:01:53;129.35;;;116.10;;
38226;SDS011;24026;49.446;8.576;2023-03-31T00:04:13;127.00;;;113.80;;
38226;SDS011;24026;49.446;8.576;2023-03-31T00:06:35;128.25;;;114.95;;
38226;SDS011;24026;49.446;8.576;2023-03-31T00:08:57;129.43;;;116.05;;
38226;SDS011;24026;49.446;8.576;2023-03-31T00:11:21;127.63;;;114.32;;
38226;SDS011;24026;49.446;8.576;2023-03-31T00:13:41;128.65;;;115.35;;
38226;SDS011;24026;49.446;8.576;2023-03-31T00:16:03;128.55;;;115.25;;
38226;SDS011;24026;49.446;8.576;2023-03-31T00:18:25;128.75;;;115.32;;
38226;SDS011;24026;49.446;8.576;2023-03-31T00:20:46;128.27;;;115.05;;
38226;SDS011;24026;49.446;8.576;2023-03-31T00:23:07;129.10;;;115.60;;
38226;SDS011;24026;49.446;8.576;2023-03-31T00:25:29;128.48;;;115.10;;
38226;SDS011;24026;49.446;8.576;2023-03-31T00:27:50;128.57;;;115.18;;
38226;SDS011;24026;49.446;8.576;2023-03-31T00:30:12;128.38;;;115.03;;
38226;SDS011;24026;49.446;8.576;2023-03-31T00:32:33;128.70;;;115.30;;
38226;SDS011;24026;49.446;8.576;2023-03-31T00:34:53;127.55;;;114.28;;
38226;SDS011;24026;49.446;8.576;2023-03-31T00:37:14;128.10;;;114.70;;
38226;SDS011;24026;49.446;8.576;2023-03-31T00:39:35;127.30;;;114.00;;
38226;SDS011;24026;49.446;8.576;2023-03-31T00:41:55;128.05;;;114.80;;
38226;SDS011;24026;49.446;8.576;2023-03-31T00:44:17;127.25;;;113.95;;
38226;SDS011;24026;49.446;8.576;2023-03-31T00:51:53;126.25;;;112.95;;
38226;SDS011;24026;49.446;8.576;2023-03-31T00:54:15;126.63;;;113.43;;
38226;SDS011;24026;49.446;8.576;2023-03-31T00:56:39;127.07;;;113.80;;
38226;SDS011;24026;49.446;8.576;2023-03-31T00:59:02;127.47;;;114.20;;
38226;SDS011;24026;49.446;8.576;2023-03-31T01:01:28;128.03;;;114.67;;
38226;SDS011;24026;49.446;8.576;2023-03-31T01:03:49;127.60;;;114.20;;
38226;SDS011;24026;49.446;8.576;2023-03-31T01:06:12;127.45;;;114.13;;
38226;SDS011;24026;49.446;8.576;2023-03-31T01:08:38;127.80;;;114.40;;
38226;SDS011;24026;49.446;8.576;2023-03-31T01:11:01;128.10;;;114.75;;
38226;SDS011;24026;49.446;8.576;2023-03-31T01:13:26;126.25;;;113.00;;
38226;SDS011;24026;49.446;8.576;2023-03-31T01:15:47;126.93;;;113.57;;
38226;SDS011;24026;49.446;8.576;2023-03-31T01:18:08;126.47;;;113.22;;
38226;SDS011;24026;49.446;8.576;2023-03-31T01:46:52;125.50;;;112.40;;
38226;SDS011;24026;49.446;8.576;2023-03-31T01:49:20;125.53;;;112.35;;
38226;SDS011;24026;49.446;8.576;2023-03-31T01:56:56;127.10;;;113.80;;
38226;SDS011;24026;49.446;8.576;2023-03-31T02:00:06;128.05;;;114.68;;
38226;SDS011;24026;49.446;8.576;2023-03-31T02:02:21;127.57;;;114.13;;
38226;SDS011;24026;49.446;8.576;2023-03-31T02:04:57;125.72;;;112.35;;
38226;SDS011;24026;49.446;8.576;2023-03-31T02:07:25;126.13;;;112.93;;
38226;SDS011;24026;49.446;8.576;2023-03-31T02:09:52;127.90;;;114.57;;
38226;SDS011;24026;49.446;8.576;2023-03-31T02:12:18;126.20;;;112.90;;
38226;SDS011;24026;49.446;8.576;2023-03-31T02:14:44;127.55;;;114.13;;
38226;SDS011;24026;49.446;8.576;2023-03-31T02:17:09;128.50;;;115.05;;
38226;SDS011;24026;49.446;8.576;2023-03-31T02:19:37;128.65;;;114.97;;
38226;SDS011;24026;49.446;8.576;2023-03-31T02:22:00;125.90;;;112.70;;
38226;SDS011;24026;49.446;8.576;2023-03-31T02:24:23;126.60;;;113.43;;
38226;SDS011;24026;49.446;8.576;2023-03-31T02:26:53;127.55;;;114.18;;
38226;SDS011;24026;49.446;8.576;2023-03-31T02:29:20;127.78;;;114.40;;
38226;SDS011;24026;49.446;8.576;2023-03-31T02:32:15;127.03;;;113.68;;
38226;SDS011;24026;49.446;8.576;2023-03-31T02:34:47;125.30;;;112.15;;
38226;SDS011;24026;49.446;8.576;2023-03-31T02:37:08;126.78;;;113.63;;
38226;SDS011;24026;49.446;8.576;2023-03-31T02:39:32;128.10;;;114.70;;
38226;SDS011;24026;49.446;8.576;2023-03-31T02:41:55;126.78;;;113.50;;
38226;SDS011;24026;49.446;8.576;2023-03-31T02:44:16;126.40;;;113.28;;
38226;SDS011;24026;49.446;8.576;2023-03-31T02:46:37;126.72;;;113.43;;
38226;SDS011;24026;49.446;8.576;2023-03-31T02:49:00;127.30;;;114.00;;
38226;SDS011;24026;49.446;8.576;2023-03-31T02:52:07;127.63;;;114.28;;
38226;SDS011;24026;49.446;8.576;2023-03-31T03:00:04;126.78;;;113.38;;
38226;SDS011;24026;49.446;8.576;2023-03-31T03:10:26;125.82;;;112.60;;
38226;SDS011;24026;49.446;8.576;2023-03-31T03:18:32;127.63;;;114.22;;
38226;SDS011;24026;49.446;8.576;2023-03-31T03:20:53;126.03;;;112.78;;
38226;SDS011;24026;49.446;8.576;2023-03-31T03:23:14;126.40;;;113.00;;
38226;SDS011;24026;49.446;8.576;2023-03-31T03:25:35;127.15;;;113.82;;
38226;SDS011;24026;49.446;8.576;2023-03-31T03:27:56;127.15;;;113.78;;
38226;SDS011;24026;49.446;8.576;2023-03-31T03:30:17;126.13;;;112.90;;
38226;SDS011;24026;49.446;8.576;2023-03-31T03:32:38;126.82;;;113.53;;
38226;SDS011;24026;49.446;8.576;2023-03-31T03:35:00;126.28;;;113.05;;
38226;SDS011;24026;49.446;8.576;2023-03-31T03:37:22;126.85;;;113.53;;
38226;SDS011;24026;49.446;8.576;2023-03-31T03:39:43;127.15;;;113.82;;
38226;SDS011;24026;49.446;8.576;2023-03-31T03:42:03;126.50;;;113.35;;
38226;SDS011;24026;49.446;8.576;2023-03-31T03:44:24;125.65;;;112.53;;
38226;SDS011;24026;49.446;8.576;2023-03-31T03:46:44;126.72;;;113.40;;
38226;SDS011;24026;49.446;8.576;2023-03-31T03:49:04;126.63;;;113.35;;
38226;SDS011;24026;49.446;8.576;2023-03-31T03:51:25;127.07;;;113.85;;
38226;SDS011;24026;49.446;8.576;2023-03-31T03:53:45;126.53;;;113.20;;
38226;SDS011;24026;49.446;8.576;2023-03-31T03:56:06;127.45;;;114.03;;
38226;SDS011;24026;49.446;8.576;2023-03-31T03:58:26;126.57;;;113.25;;
38226;SDS011;24026;49.446;8.576;2023-03-31T04:00:47;127.43;;;114.20;;
38226;SDS011;24026;49.446;8.576;2023-03-31T04:03:07;128.00;;;114.55;;
38226;SDS011;24026;49.446;8.576;2023-03-31T04:05:28;126.75;;;113.32;;
38226;SDS011;24026;49.446;8.576;2023-03-31T04:07:48;127.57;;;114.07;;
38226;SDS011;24026;49.446;8.576;2023-03-31T04:10:08;127.60;;;114.30;;
38226;SDS011;24026;49.446;8.576;2023-03-31T04:12:29;127.97;;;114.70;;
38226;SDS011;24026;49.446;8.576;2023-03-31T04:14:49;127.78;;;114.47;;
38226;SDS011;24026;49.446;8.576;2023-03-31T04:17:10;127.20;;;113.80;;
38226;SDS011;24026;49.446;8.576;2023-03-31T04:19:34;126.65;;;113.47;;
38226;SDS011;24026;49.446;8.576;2023-03-31T04:21:55;126.40;;;113.13;;
38226;SDS011;24026;49.446;8.576;2023-03-31T04:24:21;127.50;;;114.00;;
38226;SDS011;24026;49.446;8.576;2023-03-31T04:26:49;127.97;;;114.68;;
38226;SDS011;24026;49.446;8.576;2023-03-31T04:29:10;128.05;;;114.70;;
38226;SDS011;24026;49.446;8.576;2023-03-31T04:31:32;127.68;;;114.15;;
38226;SDS011;24026;49.446;8.576;2023-03-31T04:33:53;127.15;;;113.97;;
38226;SDS011;24026;49.446;8.576;2023-03-31T04:36:14;127.30;;;113.93;;
38226;SDS011;24026;49.446;8.576;2023-03-31T04:38:37;126.65;;;113.25;;
38226;SDS011;24026;49.446;8.576;2023-03-31T04:40:57;126.85;;;113.45;;
38226;SDS011;24026;49.446;8.576;2023-03-31T04:43:19;126.82;;;113.57;;
38226;SDS011;24026;49.446;8.576;2023-03-31T04:45:40;126.60;;;113.40;;
38226;SDS011;24026;49.446;8.576;2023-03-31T04:48:01;127.78;;;114.38;;
38226;SDS011;24026;49.446;8.576;2023-03-31T04:50:22;127.53;;;114.28;;
38226;SDS011;24026;49.446;8.576;2023-03-31T04:52:42;127.05;;;113.85;;
38226;SDS011;24026;49.446;8.576;2023-03-31T04:55:03;128.40;;;115.00;;
38226;SDS011;24026;49.446;8.576;2023-03-31T04:57:23;127.70;;;114.50;;
38226;SDS011;24026;49.446;8.576;2023-03-31T04:59:44;127.43;;;114.10;;
38226;SDS011;24026;49.446;8.576;2023-03-31T05:02:05;127.50;;;114.22;;
38226;SDS011;24026;49.446;8.576;2023-03-31T05:04:25;129.60;;;116.13;;
38226;SDS011;24026;49.446;8.576;2023-03-31T05:06:45;127.38;;;114.00;;
38226;SDS011;24026;49.446;8.576;2023-03-31T05:09:06;130.95;;;117.25;;
38226;SDS011;24026;49.446;8.576;2023-03-31T05:11:28;133.85;;;120.13;;
38226;SDS011;24026;49.446;8.576;2023-03-31T05:13:48;137.45;;;122.97;;
38226;SDS011;24026;49.446;8.576;2023-03-31T05:16:10;133.43;;;119.13;;
38226;SDS011;24026;49.446;8.576;2023-03-31T05:18:33;135.15;;;120.82;;
38226;SDS011;24026;49.446;8.576;2023-03-31T05:20:54;135.30;;;120.55;;
38226;SDS011;24026;49.446;8.576;2023-03-31T05:23:16;134.13;;;119.75;;
38226;SDS011;24026;49.446;8.576;2023-03-31T05:25:36;144.52;;;129.30;;
38226;SDS011;24026;49.446;8.576;2023-03-31T05:27:59;153.90;;;137.80;;
38226;SDS011;24026;49.446;8.576;2023-03-31T05:30:20;143.93;;;128.88;;
38226;SDS011;24026;49.446;8.576;2023-03-31T05:32:41;142.98;;;128.27;;
38226;SDS011;24026;49.446;8.576;2023-03-31T05:35:02;144.63;;;129.32;;
38226;SDS011;24026;49.446;8.576;2023-03-31T05:37:23;147.38;;;132.10;;
38226;SDS011;24026;49.446;8.576;2023-03-31T05:39:44;148.07;;;132.60;;
38226;SDS011;24026;49.446;8.576;2023-03-31T05:42:04;148.25;;;132.85;;
38226;SDS011;24026;49.446;8.576;2023-03-31T05:44:26;142.90;;;128.10;;
38226;SDS011;24026;49.446;8.576;2023-03-31T05:46:46;143.15;;;128.00;;
38226;SDS011;24026;49.446;8.576;2023-03-31T05:49:07;145.35;;;129.57;;
38226;SDS011;24026;49.446;8.576;2023-03-31T05:51:27;145.25;;;129.63;;
38226;SDS011;24026;49.446;8.576;2023-03-31T05:53:48;146.55;;;131.15;;
38226;SDS011;24026;49.446;8.576;2023-03-31T05:56:08;145.05;;;129.73;;
38226;SDS011;24026;49.446;8.576;2023-03-31T05:58:30;145.38;;;128.70;;
38226;SDS011;24026;49.446;8.576;2023-03-31T06:00:59;149.55;;;131.10;;
38226;SDS011;24026;49.446;8.576;2023-03-31T06:03:25;146.15;;;130.35;;
38226;SDS011;24026;49.446;8.576;2023-03-31T06:05:48;147.38;;;131.40;;
38226;SDS011;24026;49.446;8.576;2023-03-31T06:08:08;147.27;;;131.45;;
38226;SDS011;24026;49.446;8.576;2023-03-31T06:10:29;148.93;;;132.38;;
38226;SDS011;24026;49.446;8.576;2023-03-31T06:12:49;149.68;;;133.38;;
38226;SDS011;24026;49.446;8.576;2023-03-31T06:15:09;149.55;;;133.52;;
38226;SDS011;24026;49.446;8.576;2023-03-31T06:17:30;150.95;;;134.43;;
38226;SDS011;24026;49.446;8.576;2023-03-31T06:19:50;149.10;;;133.40;;
38226;SDS011;24026;49.446;8.576;2023-03-31T06:22:11;150.65;;;134.65;;
38226;SDS011;24026;49.446;8.576;2023-03-31T06:24:32;153.48;;;136.75;;
38226;SDS011;24026;49.446;8.576;2023-03-31T06:26:52;153.75;;;136.98;;
38226;SDS011;24026;49.446;8.576;2023-03-31T06:29:12;154.75;;;138.35;;
38226;SDS011;24026;49.446;8.576;2023-03-31T06:31:33;160.85;;;143.88;;
38226;SDS011;24026;49.446;8.576;2023-03-31T06:33:54;168.38;;;150.38;;
38226;SDS011;24026;49.446;8.576;2023-03-31T06:36:16;167.77;;;149.73;;
38226;SDS011;24026;49.446;8.576;2023-03-31T06:38:37;170.95;;;152.10;;
38226;SDS011;24026;49.446;8.576;2023-03-31T06:40:58;181.88;;;161.88;;
38226;SDS011;24026;49.446;8.576;2023-03-31T06:43:18;184.57;;;164.75;;
38226;SDS011;24026;49.446;8.576;2023-03-31T06:45:39;190.52;;;170.13;;
38226;SDS011;24026;49.446;8.576;2023-03-31T06:48:00;195.35;;;173.70;;
38226;SDS011;24026;49.446;8.576;2023-03-31T06:50:20;195.95;;;174.88;;
38226;SDS011;24026;49.446;8.576;2023-03-31T06:52:41;207.02;;;184.93;;
38226;SDS011;24026;49.446;8.576;2023-03-31T06:55:02;207.82;;;184.27;;
38226;SDS011;24026;49.446;8.576;2023-03-31T06:57:22;207.25;;;184.70;;
38226;SDS011;24026;49.446;8.576;2023-03-31T06:59:43;205.75;;;183.45;;
38226;SDS011;24026;49.446;8.576;2023-03-31T07:02:03;205.15;;;182.75;;
38226;SDS011;24026;49.446;8.576;2023-03-31T07:04:23;204.93;;;182.02;;
38226;SDS011;24026;49.446;8.576;2023-03-31T07:06:44;207.90;;;185.52;;
38226;SDS011;24026;49.446;8.576;2023-03-31T07:09:04;207.98;;;186.07;;
38226;SDS011;24026;49.446;8.576;2023-03-31T07:11:25;209.02;;;186.38;;
38226;SDS011;24026;49.446;8.576;2023-03-31T07:13:46;208.68;;;186.02;;
38226;SDS011;24026;49.446;8.576;2023-03-31T07:16:06;209.55;;;187.05;;
38226;SDS011;24026;49.446;8.576;2023-03-31T07:18:27;209.60;;;187.57;;
38226;SDS011;24026;49.446;8.576;2023-03-31T07:20:51;212.90;;;190.48;;
38226;SDS011;24026;49.446;8.576;2023-03-31T07:23:11;210.82;;;187.60;;
38226;SDS011;24026;49.446;8.576;2023-03-31T07:25:32;208.52;;;186.73;;
38226;SDS011;24026;49.446;8.576;2023-03-31T07:27:52;210.88;;;188.38;;
38226;SDS011;24026;49.446;8.576;2023-03-31T07:30:14;209.25;;;187.48;;
38226;SDS011;24026;49.446;8.576;2023-03-31T07:32:39;220.37;;;197.03;;
38226;SDS011;24026;49.446;8.576;2023-03-31T07:35:00;215.50;;;192.52;;
38226;SDS011;24026;49.446;8.576;2023-03-31T07:37:20;214.13;;;192.45;;
38226;SDS011;24026;49.446;8.576;2023-03-31T07:39:41;218.07;;;194.23;;
38226;SDS011;24026;49.446;8.576;2023-03-31T07:42:01;214.98;;;192.65;;
38226;SDS011;24026;49.446;8.576;2023-03-31T07:44:22;212.57;;;189.95;;
38226;SDS011;24026;49.446;8.576;2023-03-31T07:46:42;210.45;;;188.30;;
38226;SDS011;24026;49.446;8.576;2023-03-31T07:49:03;212.13;;;189.70;;
38226;SDS011;24026;49.446;8.576;2023-03-31T07:51:24;224.20;;;200.55;;
38226;SDS011;24026;49.446;8.576;2023-03-31T07:53:46;241.43;;;216.35;;
38226;SDS011;24026;49.446;8.576;2023-03-31T07:56:08;246.00;;;219.65;;
38226;SDS011;24026;49.446;8.576;2023-03-31T07:58:29;233.02;;;208.63;;
38226;SDS011;24026;49.446;8.576;2023-03-31T08:00:49;228.50;;;204.70;;
38226;SDS011;24026;49.446;8.576;2023-03-31T08:03:10;230.18;;;205.43;;
38226;SDS011;24026;49.446;8.576;2023-03-31T08:05:31;227.80;;;203.10;;
38226;SDS011;24026;49.446;8.576;2023-03-31T08:07:51;232.57;;;207.63;;
38226;SDS011;24026;49.446;8.576;2023-03-31T08:10:16;230.57;;;206.38;;
38226;SDS011;24026;49.446;8.576;2023-03-31T08:12:41;229.90;;;205.40;;
38226;SDS011;24026;49.446;8.576;2023-03-31T08:15:02;226.32;;;201.75;;
38226;SDS011;24026;49.446;8.576;2023-03-31T08:17:23;227.20;;;202.65;;
38226;SDS011;24026;49.446;8.576;2023-03-31T08:19:43;226.18;;;201.60;;
38226;SDS011;24026;49.446;8.576;2023-03-31T08:22:04;226.30;;;202.13;;
38226;SDS011;24026;49.446;8.576;2023-03-31T08:24:24;229.88;;;202.15;;
38226;SDS011;24026;49.446;8.576;2023-03-31T08:26:45;235.63;;;209.93;;
38226;SDS011;24026;49.446;8.576;2023-03-31T08:29:06;238.98;;;212.82;;
38226;SDS011;24026;49.446;8.576;2023-03-31T08:31:28;241.30;;;215.05;;
38226;SDS011;24026;49.446;8.576;2023-03-31T08:33:49;241.93;;;215.60;;
38226;SDS011;24026;49.446;8.576;2023-03-31T08:36:10;252.27;;;225.63;;
38226;SDS011;24026;49.446;8.576;2023-03-31T08:38:31;261.95;;;233.52;;
38226;SDS011;24026;49.446;8.576;2023-03-31T08:40:51;280.05;;;240.52;;
38226;SDS011;24026;49.446;8.576;2023-03-31T08:43:22;272.77;;;239.55;;
38226;SDS011;24026;49.446;8.576;2023-03-31T08:45:49;278.88;;;237.73;;
38226;SDS011;24026;49.446;8.576;2023-03-31T08:48:29;272.38;;;238.43;;
38226;SDS011;24026;49.446;8.576;2023-03-31T08:51:13;268.83;;;236.87;;
38226;SDS011;24026;49.446;8.576;2023-03-31T08:53:41;267.50;;;237.57;;
38226;SDS011;24026;49.446;8.576;2023-03-31T08:56:08;279.90;;;242.52;;
38226;SDS011;24026;49.446;8.576;2023-03-31T08:58:39;281.58;;;235.73;;
38226;SDS011;24026;49.446;8.576;2023-03-31T09:06:35;287.30;;;248.55;;
38226;SDS011;24026;49.446;8.576;2023-03-31T09:09:00;274.52;;;244.63;;
38226;SDS011;24026;49.446;8.576;2023-03-31T09:16:25;264.70;;;236.13;;
38226;SDS011;24026;49.446;8.576;2023-03-31T09:18:47;260.52;;;231.75;;
38226;SDS011;24026;49.446;8.576;2023-03-31T09:21:29;255.27;;;226.88;;
38226;SDS011;24026;49.446;8.576;2023-03-31T09:24:04;250.50;;;222.80;;
38226;SDS011;24026;49.446;8.576;2023-03-31T09:29:03;251.82;;;217.73;;
38226;SDS011;24026;49.446;8.576;2023-03-31T09:31:29;244.10;;;217.25;;
38226;SDS011;24026;49.446;8.576;2023-03-31T09:33:52;249.40;;;217.20;;
38226;SDS011;24026;49.446;8.576;2023-03-31T09:36:18;244.75;;;217.60;;
38226;SDS011;24026;49.446;8.576;2023-03-31T09:38:41;250.43;;;214.85;;
38226;SDS011;24026;49.446;8.576;2023-03-31T09:41:03;244.45;;;217.50;;
38226;SDS011;24026;49.446;8.576;2023-03-31T09:43:28;241.60;;;212.43;;
38226;SDS011;24026;49.446;8.576;2023-03-31T09:45:50;244.77;;;212.73;;
38226;SDS011;24026;49.446;8.576;2023-03-31T09:48:18;241.70;;;214.75;;
38226;SDS011;24026;49.446;8.576;2023-03-31T09:50:44;242.43;;;215.55;;
38226;SDS011;24026;49.446;8.576;2023-03-31T09:53:10;242.35;;;215.63;;
38226;SDS011;24026;49.446;8.576;2023-03-31T09:58:17;240.50;;;213.07;;
38226;SDS011;24026;49.446;8.576;2023-03-31T10:00:42;239.68;;;208.35;;
38226;SDS011;24026;49.446;8.576;2023-03-31T10:03:16;237.63;;;210.30;;
38226;SDS011;24026;49.446;8.576;2023-03-31T10:05:37;239.02;;;210.13;;
38226;SDS011;24026;49.446;8.576;2023-03-31T10:10:33;238.27;;;211.20;;
38226;SDS011;24026;49.446;8.576;2023-03-31T10:12:54;239.05;;;212.30;;
38226;SDS011;24026;49.446;8.576;2023-03-31T10:15:19;239.15;;;211.63;;
38226;SDS011;24026;49.446;8.576;2023-03-31T10:17:41;233.57;;;208.13;;
38226;SDS011;24026;49.446;8.576;2023-03-31T10:20:05;240.48;;;208.43;;
38226;SDS011;24026;49.446;8.576;2023-03-31T10:22:42;237.52;;;211.85;;
38226;SDS011;24026;49.446;8.576;2023-03-31T10:25:09;247.07;;;220.80;;
38226;SDS011;24026;49.446;8.576;2023-03-31T10:27:54;241.88;;;215.27;;
38226;SDS011;24026;49.446;8.576;2023-03-31T10:30:22;243.98;;;215.95;;
38226;SDS011;24026;49.446;8.576;2023-03-31T10:32:45;242.45;;;215.85;;
38226;SDS011;24026;49.446;8.576;2023-03-31T10:35:07;246.13;;;217.48;;
38226;SDS011;24026;49.446;8.576;2023-03-31T10:37:45;255.30;;;219.02;;
38226;SDS011;24026;49.446;8.576;2023-03-31T10:40:13;248.13;;;219.60;;
38226;SDS011;24026;49.446;8.576;2023-03-31T10:42:36;257.98;;;224.98;;
38226;SDS011;24026;49.446;8.576;2023-03-31T10:45:13;260.63;;;229.70;;
38226;SDS011;24026;49.446;8.576;2023-03-31T10:47:44;262.27;;;230.20;;
38226;SDS011;24026;49.446;8.576;2023-03-31T10:50:12;265.97;;;233.30;;
38226;SDS011;24026;49.446;8.576;2023-03-31T10:52:34;285.02;;;254.38;;
38226;SDS011;24026;49.446;8.576;2023-03-31T10:55:05;295.45;;;263.05;;
38226;SDS011;24026;49.446;8.576;2023-03-31T10:57:35;294.80;;;261.83;;
38226;SDS011;24026;49.446;8.576;2023-03-31T11:04:54;286.15;;;253.13;;
38226;SDS011;24026;49.446;8.576;2023-03-31T11:07:26;287.42;;;252.15;;
38226;SDS011;24026;49.446;8.576;2023-03-31T11:12:43;273.65;;;243.77;;
38226;SDS011;24026;49.446;8.576;2023-03-31T11:32:52;285.25;;;247.07;;
38226;SDS011;24026;49.446;8.576;2023-03-31T11:35:28;283.15;;;251.98;;
38226;SDS011;24026;49.446;8.576;2023-03-31T11:40:47;284.33;;;252.27;;
38226;SDS011;24026;49.446;8.576;2023-03-31T11:50:52;280.13;;;249.25;;
38226;SDS011;24026;49.446;8.576;2023-03-31T11:53:23;282.27;;;249.93;;
38226;SDS011;24026;49.446;8.576;2023-03-31T11:55:49;282.33;;;251.48;;
38226;SDS011;24026;49.446;8.576;2023-03-31T11:58:17;288.92;;;250.82;;
38226;SDS011;24026;49.446;8.576;2023-03-31T12:00:43;282.27;;;247.35;;
38226;SDS011;24026;49.446;8.576;2023-03-31T12:03:21;276.92;;;245.75;;
38226;SDS011;24026;49.446;8.576;2023-03-31T12:05:51;266.20;;;237.15;;
38226;SDS011;24026;49.446;8.576;2023-03-31T12:08:22;272.60;;;238.00;;
38226;SDS011;24026;49.446;8.576;2023-03-31T12:10:52;259.55;;;230.57;;
38226;SDS011;24026;49.446;8.576;2023-03-31T12:13:28;258.00;;;225.68;;
38226;SDS011;24026;49.446;8.576;2023-03-31T12:16:05;245.68;;;218.80;;
38226;SDS011;24026;49.446;8.576;2023-03-31T12:18:35;244.95;;;217.88;;
38226;SDS011;24026;49.446;8.576;2023-03-31T12:21:02;239.95;;;213.50;;
38226;SDS011;24026;49.446;8.576;2023-03-31T12:23:26;230.60;;;205.55;;
38226;SDS011;24026;49.446;8.576;2023-03-31T12:25:54;227.77;;;203.45;;
38226;SDS011;24026;49.446;8.576;2023-03-31T12:28:16;233.00;;;207.65;;
38226;SDS011;24026;49.446;8.576;2023-03-31T12:30:40;229.73;;;204.93;;
38226;SDS011;24026;49.446;8.576;2023-03-31T12:33:10;224.95;;;200.35;;
38226;SDS011;24026;49.446;8.576;2023-03-31T12:56:48;203.02;;;181.45;;
38226;SDS011;24026;49.446;8.576;2023-03-31T12:59:24;203.27;;;181.68;;
38226;SDS011;24026;49.446;8.576;2023-03-31T13:02:10;201.55;;;180.40;;
38226;SDS011;24026;49.446;8.576;2023-03-31T13:04:35;200.02;;;178.65;;
38226;SDS011;24026;49.446;8.576;2023-03-31T13:06:57;201.40;;;180.00;;
38226;SDS011;24026;49.446;8.576;2023-03-31T13:11:39;199.15;;;178.23;;
38226;SDS011;24026;49.446;8.576;2023-03-31T13:16:36;194.15;;;173.82;;
38226;SDS011;24026;49.446;8.576;2023-03-31T13:18:56;195.18;;;174.85;;
38226;SDS011;24026;49.446;8.576;2023-03-31T13:21:17;190.50;;;170.52;;
38226;SDS011;24026;49.446;8.576;2023-03-31T13:23:37;191.55;;;171.20;;
38226;SDS011;24026;49.446;8.576;2023-03-31T13:26:05;189.15;;;168.55;;
38226;SDS011;24026;49.446;8.576;2023-03-31T13:28:45;186.65;;;166.63;;
38226;SDS011;24026;49.446;8.576;2023-03-31T13:48:35;174.93;;;156.80;;
38226;SDS011;24026;49.446;8.576;2023-03-31T14:05:24;167.68;;;150.07;;
38226;SDS011;24026;49.446;8.576;2023-03-31T14:08:01;167.45;;;149.85;;
38226;SDS011;24026;49.446;8.576;2023-03-31T14:10:28;168.18;;;150.02;;
38226;SDS011;24026;49.446;8.576;2023-03-31T14:13:03;165.50;;;148.38;;
38226;SDS011;24026;49.446;8.576;2023-03-31T14:15:28;163.83;;;146.77;;
38226;SDS011;24026;49.446;8.576;2023-03-31T14:17:48;161.02;;;143.95;;
38226;SDS011;24026;49.446;8.576;2023-03-31T14:22:57;158.10;;;141.50;;
38226;SDS011;24026;49.446;8.576;2023-03-31T14:34:15;155.18;;;138.77;;
38226;SDS011;24026;49.446;8.576;2023-03-31T14:39:11;153.75;;;137.35;;
38226;SDS011;24026;49.446;8.576;2023-03-31T14:41:37;152.35;;;136.50;;
38226;SDS011;24026;49.446;8.576;2023-03-31T14:43:59;154.25;;;137.90;;
38226;SDS011;24026;49.446;8.576;2023-03-31T14:46:22;153.57;;;137.38;;
38226;SDS011;24026;49.446;8.576;2023-03-31T14:48:43;153.35;;;137.23;;
38226;SDS011;24026;49.446;8.576;2023-03-31T14:51:07;153.48;;;137.00;;
38226;SDS011;24026;49.446;8.576;2023-03-31T14:53:28;153.93;;;138.02;;
38226;SDS011;24026;49.446;8.576;2023-03-31T14:55:49;153.13;;;137.13;;
38226;SDS011;24026;49.446;8.576;2023-03-31T14:58:10;152.05;;;136.25;;
38226;SDS011;24026;49.446;8.576;2023-03-31T15:00:35;152.23;;;136.27;;
38226;SDS011;24026;49.446;8.576;2023-03-31T15:02:58;152.18;;;136.50;;
38226;SDS011;24026;49.446;8.576;2023-03-31T15:07:43;152.43;;;136.63;;
38226;SDS011;24026;49.446;8.576;2023-03-31T15:10:04;151.55;;;135.77;;
38226;SDS011;24026;49.446;8.576;2023-03-31T15:12:26;150.13;;;134.23;;
38226;SDS011;24026;49.446;8.576;2023-03-31T15:17:17;148.50;;;132.88;;
38226;SDS011;24026;49.446;8.576;2023-03-31T15:19:39;150.60;;;134.85;;
38226;SDS011;24026;49.446;8.576;2023-03-31T15:22:15;147.40;;;132.02;;
38226;SDS011;24026;49.446;8.576;2023-03-31T15:24:37;146.07;;;130.88;;
38226;SDS011;24026;49.446;8.576;2023-03-31T15:27:00;148.38;;;132.85;;
38226;SDS011;24026;49.446;8.576;2023-03-31T15:29:25;145.43;;;130.07;;
38226;SDS011;24026;49.446;8.576;2023-03-31T15:31:56;146.95;;;131.27;;
38226;SDS011;24026;49.446;8.576;2023-03-31T15:34:30;146.43;;;131.05;;
38226;SDS011;24026;49.446;8.576;2023-03-31T15:36:53;145.73;;;130.23;;
38226;SDS011;24026;49.446;8.576;2023-03-31T15:39:15;146.27;;;130.85;;
38226;SDS011;24026;49.446;8.576;2023-03-31T15:41:36;146.52;;;130.85;;
38226;SDS011;24026;49.446;8.576;2023-03-31T15:44:06;146.93;;;131.45;;
38226;SDS011;24026;49.446;8.576;2023-03-31T15:46:49;148.77;;;132.85;;
38226;SDS011;24026;49.446;8.576;2023-03-31T15:49:19;147.25;;;131.25;;
38226;SDS011;24026;49.446;8.576;2023-03-31T15:51:40;147.57;;;131.38;;
38226;SDS011;24026;49.446;8.576;2023-03-31T15:54:01;148.02;;;132.15;;
38226;SDS011;24026;49.446;8.576;2023-03-31T15:56:33;147.93;;;132.20;;
38226;SDS011;24026;49.446;8.576;2023-03-31T15:59:00;147.75;;;131.85;;
38226;SDS011;24026;49.446;8.576;2023-03-31T16:01:26;147.63;;;131.90;;
38226;SDS011;24026;49.446;8.576;2023-03-31T16:03:52;147.32;;;130.80;;
38226;SDS011;24026;49.446;8.576;2023-03-31T16:06:15;147.93;;;131.77;;
38226;SDS011;24026;49.446;8.576;2023-03-31T16:09:00;150.38;;;130.30;;
38226;SDS011;24026;49.446;8.576;2023-03-31T16:11:32;147.60;;;130.35;;
38226;SDS011;24026;49.446;8.576;2023-03-31T16:13:55;147.88;;;131.60;;
38226;SDS011;24026;49.446;8.576;2023-03-31T16:16:19;146.10;;;130.00;;
38226;SDS011;24026;49.446;8.576;2023-03-31T16:18:43;146.23;;;130.10;;
38226;SDS011;24026;49.446;8.576;2023-03-31T16:21:08;145.60;;;129.60;;
38226;SDS011;24026;49.446;8.576;2023-03-31T16:23:30;145.10;;;129.60;;
38226;SDS011;24026;49.446;8.576;2023-03-31T16:25:54;148.07;;;132.35;;
38226;SDS011;24026;49.446;8.576;2023-03-31T16:28:19;145.68;;;129.88;;
38226;SDS011;24026;49.446;8.576;2023-03-31T16:30:44;145.90;;;130.13;;
38226;SDS011;24026;49.446;8.576;2023-03-31T16:33:08;146.20;;;130.32;;
38226;SDS011;24026;49.446;8.576;2023-03-31T16:35:32;146.05;;;130.32;;
38226;SDS011;24026;49.446;8.576;2023-03-31T16:37:55;145.55;;;129.52;;
38226;SDS011;24026;49.446;8.576;2023-03-31T16:40:16;146.98;;;130.95;;
38226;SDS011;24026;49.446;8.576;2023-03-31T16:42:36;148.15;;;132.05;;
38226;SDS011;24026;49.446;8.576;2023-03-31T16:44:56;148.90;;;132.50;;
38226;SDS011;24026;49.446;8.576;2023-03-31T16:47:17;147.23;;;131.35;;